createdAt,value
2019-01-22T00:00:56.331Z,1010.90
2019-01-22T00:01:56.338Z,1010.91
2019-01-22T00:02:56.320Z,1010.89
2019-01-22T00:03:56.293Z,1010.87
2019-01-22T00:04:56.284Z,1010.88
2019-01-22T00:05:56.268Z,1010.86
2019-01-22T00:06:56.249Z,1010.83
2019-01-22T00:07:56.247Z,1010.80
2019-01-22T00:08:56.251Z,1010.81
2019-01-22T00:09:56.209Z,1010.81
2019-01-22T00:10:56.187Z,1010.83
2019-01-22T00:11:56.176Z,1010.82
2019-01-22T00:12:56.182Z,1010.81
2019-01-22T00:13:58.908Z,1010.81
2019-01-22T00:14:56.130Z,1010.82
2019-01-22T00:15:56.118Z,1010.77
2019-01-22T00:16:56.112Z,1010.78
2019-01-22T00:17:56.102Z,1010.78
2019-01-22T00:18:56.073Z,1010.71
2019-01-22T00:19:56.062Z,1010.72
2019-01-22T00:20:56.051Z,1010.72
2019-01-22T00:21:56.035Z,1010.65
2019-01-22T00:23:02.773Z,1010.65
2019-01-22T00:23:56.007Z,1010.65
2019-01-22T00:24:55.995Z,1010.60
2019-01-22T00:25:55.977Z,1010.59
2019-01-22T00:26:55.969Z,1010.54
2019-01-22T00:27:55.963Z,1010.54
2019-01-22T00:28:55.950Z,1010.54
2019-01-22T00:29:56.000Z,1010.51
2019-01-22T00:30:55.909Z,1010.54
2019-01-22T00:31:55.893Z,1010.44
2019-01-22T00:32:55.893Z,1010.46
2019-01-22T00:33:55.871Z,1010.38
2019-01-22T00:34:55.864Z,1010.37
2019-01-22T00:35:55.843Z,1010.35
2019-01-22T00:36:55.829Z,1010.32
2019-01-22T00:37:55.827Z,1010.30
2019-01-22T00:38:55.815Z,1010.24
2019-01-22T00:39:56.415Z,1010.26
2019-01-22T00:40:55.778Z,1010.21
2019-01-22T00:41:55.749Z,1010.19
2019-01-22T00:42:55.760Z,1010.21
2019-01-22T00:43:55.739Z,1010.17
2019-01-22T00:44:55.715Z,1010.17
2019-01-22T00:45:55.702Z,1010.17
2019-01-22T00:46:55.680Z,1010.17
2019-01-22T00:47:55.669Z,1010.12
2019-01-22T00:48:55.653Z,1010.07
2019-01-22T00:49:55.656Z,1010.06
2019-01-22T00:50:55.618Z,1010.06
2019-01-22T00:51:55.611Z,1010.04
2019-01-22T00:52:55.598Z,1009.98
2019-01-22T00:53:55.598Z,1010.01
2019-01-22T00:54:55.570Z,1009.99
2019-01-22T00:55:55.563Z,1010.00
2019-01-22T00:56:55.545Z,1010.01
2019-01-22T00:57:55.530Z,1010.00
2019-01-22T00:58:56.414Z,1009.99
2019-01-22T00:59:55.493Z,1010.04
2019-01-22T01:00:55.481Z,1010.02
2019-01-22T01:01:55.475Z,1010.04
2019-01-22T01:02:55.476Z,1010.00
2019-01-22T01:03:55.450Z,1010.00
2019-01-22T01:04:55.437Z,1010.00
2019-01-22T01:05:55.418Z,1009.97
2019-01-22T01:06:55.418Z,1009.97
2019-01-22T01:07:55.924Z,1009.95
2019-01-22T01:08:55.374Z,1009.94
2019-01-22T01:09:55.368Z,1009.89
2019-01-22T01:10:55.352Z,1009.86
2019-01-22T01:11:55.329Z,1009.94
2019-01-22T01:12:55.322Z,1009.85
2019-01-22T01:13:55.310Z,1009.82
2019-01-22T01:14:55.302Z,1009.78
2019-01-22T01:15:55.279Z,1009.73
2019-01-22T01:16:55.277Z,1009.74
2019-01-22T01:17:55.247Z,1009.74
2019-01-22T01:18:55.269Z,1009.77
2019-01-22T01:19:55.215Z,1009.74
2019-01-22T01:20:55.209Z,1009.76
2019-01-22T01:21:55.195Z,1009.74
2019-01-22T01:22:55.178Z,1009.74
2019-01-22T01:23:55.162Z,1009.76
2019-01-22T01:24:55.151Z,1009.73
2019-01-22T01:25:55.139Z,1009.77
2019-01-22T01:26:55.124Z,1009.73
2019-01-22T01:27:55.112Z,1009.68
2019-01-22T01:28:55.096Z,1009.71
2019-01-22T01:29:55.079Z,1009.69
2019-01-22T01:30:55.066Z,1009.68
2019-01-22T01:31:55.044Z,1009.67
2019-01-22T01:32:55.055Z,1009.67
2019-01-22T01:33:55.017Z,1009.62
2019-01-22T01:34:55.017Z,1009.60
2019-01-22T01:35:54.994Z,1009.58
2019-01-22T01:36:54.976Z,1009.51
2019-01-22T01:37:54.972Z,1009.54
2019-01-22T01:38:54.951Z,1009.55
2019-01-22T01:39:54.942Z,1009.52
2019-01-22T01:40:54.925Z,1009.46
2019-01-22T01:41:54.911Z,1009.43
2019-01-22T01:42:54.890Z,1009.44
2019-01-22T01:43:54.877Z,1009.47
2019-01-22T01:44:54.865Z,1009.43
2019-01-22T01:45:54.860Z,1009.40
2019-01-22T01:46:54.843Z,1009.40
2019-01-22T01:47:54.832Z,1009.36
2019-01-22T01:48:54.817Z,1009.35
2019-01-22T01:49:54.797Z,1009.41
2019-01-22T01:50:54.791Z,1009.33
2019-01-22T01:51:54.771Z,1009.31
2019-01-22T01:52:54.759Z,1009.28
2019-01-22T01:53:54.744Z,1009.35
2019-01-22T01:54:54.722Z,1009.30
2019-01-22T01:55:54.718Z,1009.30
2019-01-22T01:56:54.703Z,1009.28
2019-01-22T01:57:54.690Z,1009.26
2019-01-22T01:58:54.678Z,1009.25
2019-01-22T01:59:54.685Z,1009.20
2019-01-22T02:00:54.643Z,1009.22
2019-01-22T02:01:54.634Z,1009.16
2019-01-22T02:02:54.649Z,1009.17
2019-01-22T02:03:54.604Z,1009.16
2019-01-22T02:04:54.583Z,1009.16
2019-01-22T02:05:54.586Z,1009.14
2019-01-22T02:06:54.570Z,1009.12
2019-01-22T02:07:54.544Z,1009.13
2019-01-22T02:08:54.538Z,1009.08
2019-01-22T02:09:54.515Z,1009.06
2019-01-22T02:10:54.506Z,1009.05
2019-01-22T02:11:54.491Z,1009.07
2019-01-22T02:12:54.479Z,1009.05
2019-01-22T02:13:54.461Z,1009.03
2019-01-22T02:14:54.446Z,1008.99
2019-01-22T02:15:54.434Z,1009.02
2019-01-22T02:16:54.424Z,1009.00
2019-01-22T02:17:54.404Z,1009.00
2019-01-22T02:18:54.405Z,1008.97
2019-01-22T02:19:54.378Z,1008.97
2019-01-22T02:20:54.374Z,1008.99
2019-01-22T02:21:54.353Z,1008.93
2019-01-22T02:22:54.336Z,1008.93
2019-01-22T02:23:54.322Z,1008.89
2019-01-22T02:24:54.321Z,1008.87
2019-01-22T02:25:54.296Z,1008.85
2019-01-22T02:26:54.272Z,1008.83
2019-01-22T02:27:54.279Z,1008.82
2019-01-22T02:28:54.250Z,1008.78
2019-01-22T02:29:54.243Z,1008.78
2019-01-22T02:30:54.229Z,1008.77
2019-01-22T02:31:54.210Z,1008.73
2019-01-22T02:32:54.202Z,1008.69
2019-01-22T02:33:54.177Z,1008.70
2019-01-22T02:34:54.181Z,1008.68
2019-01-22T02:35:54.157Z,1008.67
2019-01-22T02:36:54.141Z,1008.67
2019-01-22T02:37:54.130Z,1008.65
2019-01-22T02:38:54.117Z,1008.61
2019-01-22T02:39:54.095Z,1008.61
2019-01-22T02:40:54.096Z,1008.57
2019-01-22T02:41:54.107Z,1008.52
2019-01-22T02:42:54.060Z,1008.51
2019-01-22T02:43:54.046Z,1008.49
2019-01-22T02:44:54.041Z,1008.43
2019-01-22T02:45:54.014Z,1008.41
2019-01-22T02:46:54.003Z,1008.39
2019-01-22T02:47:53.988Z,1008.38
2019-01-22T02:48:53.973Z,1008.30
2019-01-22T02:49:53.966Z,1008.34
2019-01-22T02:50:53.947Z,1008.31
2019-01-22T02:51:53.927Z,1008.31
2019-01-22T02:52:53.922Z,1008.29
2019-01-22T02:53:53.898Z,1008.29
2019-01-22T02:54:53.883Z,1008.31
2019-01-22T02:55:53.873Z,1008.23
2019-01-22T02:56:53.862Z,1008.23
2019-01-22T02:57:53.847Z,1008.18
2019-01-22T02:58:53.836Z,1008.15
2019-01-22T02:59:53.812Z,1008.12
2019-01-22T03:00:53.797Z,1008.10
2019-01-22T03:01:53.803Z,1008.12
2019-01-22T03:02:53.781Z,1008.01
2019-01-22T03:03:53.759Z,1008.06
2019-01-22T03:04:53.752Z,1008.03
2019-01-22T03:05:53.732Z,1008.02
2019-01-22T03:06:53.721Z,1008.05
2019-01-22T03:07:53.703Z,1007.99
2019-01-22T03:08:53.690Z,1008.01
2019-01-22T03:09:53.679Z,1007.99
2019-01-22T03:10:53.669Z,1008.00
2019-01-22T03:11:53.653Z,1007.97
2019-01-22T03:12:53.638Z,1007.94
2019-01-22T03:13:53.627Z,1007.93
2019-01-22T03:14:53.609Z,1007.92
2019-01-22T03:15:53.588Z,1007.88
2019-01-22T03:16:53.580Z,1007.86
2019-01-22T03:17:54.448Z,1007.86
2019-01-22T03:18:53.552Z,1007.90
2019-01-22T03:19:53.539Z,1007.86
2019-01-22T03:20:53.527Z,1007.85
2019-01-22T03:21:53.516Z,1007.80
2019-01-22T03:22:53.497Z,1007.82
2019-01-22T03:23:53.494Z,1007.77
2019-01-22T03:24:53.477Z,1007.81
2019-01-22T03:25:53.454Z,1007.81
2019-01-22T03:26:53.455Z,1007.76
2019-01-22T03:27:53.427Z,1007.79
2019-01-22T03:28:53.410Z,1007.70
2019-01-22T03:29:53.394Z,1007.71
2019-01-22T03:30:53.400Z,1007.70
2019-01-22T03:31:53.376Z,1007.64
2019-01-22T03:32:53.375Z,1007.65
2019-01-22T03:33:53.341Z,1007.61
2019-01-22T03:34:53.340Z,1007.63
2019-01-22T03:35:53.315Z,1007.60
2019-01-22T03:36:53.296Z,1007.61
2019-01-22T03:37:53.282Z,1007.62
2019-01-22T03:38:53.270Z,1007.58
2019-01-22T03:39:53.255Z,1007.52
2019-01-22T03:40:53.241Z,1007.54
2019-01-22T03:41:53.232Z,1007.50
2019-01-22T03:42:53.214Z,1007.49
2019-01-22T03:43:53.940Z,1007.43
2019-01-22T03:44:53.187Z,1007.41
2019-01-22T03:45:53.174Z,1007.38
2019-01-22T03:46:53.180Z,1007.38
2019-01-22T03:47:53.146Z,1007.36
2019-01-22T03:48:53.136Z,1007.35
2019-01-22T03:49:53.118Z,1007.28
2019-01-22T03:50:53.096Z,1007.27
2019-01-22T03:51:53.081Z,1007.30
2019-01-22T03:52:53.085Z,1007.29
2019-01-22T03:53:53.843Z,1007.25
2019-01-22T03:54:53.042Z,1007.26
2019-01-22T03:55:53.027Z,1007.26
2019-01-22T03:56:53.022Z,1007.23
2019-01-22T03:57:53.005Z,1007.24
2019-01-22T03:58:53.000Z,1007.25
2019-01-22T03:59:52.969Z,1007.22
2019-01-22T04:00:52.957Z,1007.22
2019-01-22T04:01:52.947Z,1007.20
2019-01-22T04:02:52.941Z,1007.18
2019-01-22T04:03:52.928Z,1007.15
2019-01-22T04:04:52.912Z,1007.17
2019-01-22T04:05:52.887Z,1007.16
2019-01-22T04:06:52.876Z,1007.10
2019-01-22T04:07:53.448Z,1007.11
2019-01-22T04:08:52.843Z,1007.12
2019-01-22T04:09:52.826Z,1007.07
2019-01-22T04:10:52.818Z,1007.02
2019-01-22T04:11:52.822Z,1007.00
2019-01-22T04:12:53.451Z,1007.02
2019-01-22T04:13:52.772Z,1006.99
2019-01-22T04:14:52.757Z,1006.96
2019-01-22T04:15:52.748Z,1006.98
2019-01-22T04:16:52.730Z,1006.94
2019-01-22T04:17:52.717Z,1006.94
2019-01-22T04:18:52.715Z,1006.93
2019-01-22T04:19:52.696Z,1006.93
2019-01-22T04:20:53.453Z,1006.88
2019-01-22T04:21:52.666Z,1006.88
2019-01-22T04:22:52.643Z,1006.91
2019-01-22T04:23:52.633Z,1006.86
2019-01-22T04:24:52.613Z,1006.83
2019-01-22T04:25:52.607Z,1006.77
2019-01-22T04:26:52.591Z,1006.76
2019-01-22T04:27:52.569Z,1006.70
2019-01-22T04:28:52.565Z,1006.66
2019-01-22T04:29:52.547Z,1006.63
2019-01-22T04:30:52.532Z,1006.59
2019-01-22T04:31:52.518Z,1006.62
2019-01-22T04:32:52.507Z,1006.50
2019-01-22T04:33:52.479Z,1006.49
2019-01-22T04:34:52.473Z,1006.50
2019-01-22T04:35:52.453Z,1006.49
2019-01-22T04:36:52.440Z,1006.43
2019-01-22T04:37:52.428Z,1006.43
2019-01-22T04:38:52.958Z,1006.46
2019-01-22T04:39:52.414Z,1006.34
2019-01-22T04:40:52.391Z,1006.37
2019-01-22T04:41:52.371Z,1006.33
2019-01-22T04:42:52.370Z,1006.36
2019-01-22T04:43:52.351Z,1006.35
2019-01-22T04:44:52.327Z,1006.39
2019-01-22T04:45:52.321Z,1006.38
2019-01-22T04:46:52.321Z,1006.34
2019-01-22T04:47:52.289Z,1006.36
2019-01-22T04:48:52.271Z,1006.34
2019-01-22T04:49:52.263Z,1006.36
2019-01-22T04:50:52.260Z,1006.28
2019-01-22T04:51:52.234Z,1006.29
2019-01-22T04:52:52.225Z,1006.26
2019-01-22T04:53:52.201Z,1006.25
2019-01-22T04:54:52.187Z,1006.23
2019-01-22T04:55:52.191Z,1006.23
2019-01-22T04:56:52.160Z,1006.22
2019-01-22T04:57:52.154Z,1006.17
2019-01-22T04:58:52.128Z,1006.16
2019-01-22T04:59:52.122Z,1006.22
2019-01-22T05:00:52.107Z,1006.14
2019-01-22T05:01:52.087Z,1006.11
2019-01-22T05:02:52.074Z,1006.11
2019-01-22T05:03:52.063Z,1006.11
2019-01-22T05:04:52.046Z,1006.03
2019-01-22T05:05:52.032Z,1006.04
2019-01-22T05:06:52.021Z,1006.03
2019-01-22T05:07:52.962Z,1006.03
2019-01-22T05:08:51.990Z,1005.97
2019-01-22T05:09:51.977Z,1006.00
2019-01-22T05:10:51.962Z,1006.01
2019-01-22T05:11:51.951Z,1005.99
2019-01-22T05:12:51.936Z,1005.97
2019-01-22T05:13:51.913Z,1005.98
2019-01-22T05:14:52.041Z,1005.92
2019-01-22T05:15:51.886Z,1005.89
2019-01-22T05:16:51.876Z,1005.92
2019-01-22T05:17:51.871Z,1005.95
2019-01-22T05:18:51.850Z,1005.90
2019-01-22T05:19:56.732Z,1005.91
2019-01-22T05:20:51.809Z,1005.93
2019-01-22T05:21:51.805Z,1005.96
2019-01-22T05:22:51.794Z,1005.92
2019-01-22T05:23:51.770Z,1005.94
2019-01-22T05:24:51.783Z,1005.89
2019-01-22T05:25:51.745Z,1005.89
2019-01-22T05:26:51.738Z,1005.87
2019-01-22T05:27:52.464Z,1005.90
2019-01-22T05:28:51.773Z,1005.90
2019-01-22T05:29:51.700Z,1005.88
2019-01-22T05:30:51.676Z,1005.87
2019-01-22T05:31:51.690Z,1005.85
2019-01-22T05:32:51.664Z,1005.82
2019-01-22T05:33:51.631Z,1005.78
2019-01-22T05:34:51.620Z,1005.82
2019-01-22T05:35:51.613Z,1005.77
2019-01-22T05:36:51.598Z,1005.73
2019-01-22T05:37:51.571Z,1005.74
2019-01-22T05:38:51.575Z,1005.75
2019-01-22T05:39:51.549Z,1005.75
2019-01-22T05:40:51.534Z,1005.76
2019-01-22T05:41:51.523Z,1005.77
2019-01-22T05:42:51.517Z,1005.75
2019-01-22T05:43:51.491Z,1005.73
2019-01-22T05:44:51.481Z,1005.75
2019-01-22T05:45:51.458Z,1005.76
2019-01-22T05:46:51.456Z,1005.71
2019-01-22T05:47:51.437Z,1005.72
2019-01-22T05:48:51.418Z,1005.77
2019-01-22T05:49:51.424Z,1005.75
2019-01-22T05:50:51.400Z,1005.77
2019-01-22T05:51:51.385Z,1005.75
2019-01-22T05:52:51.366Z,1005.72
2019-01-22T05:53:51.353Z,1005.75
2019-01-22T05:54:51.331Z,1005.71
2019-01-22T05:55:51.330Z,1005.69
2019-01-22T05:56:51.968Z,1005.69
2019-01-22T05:57:51.307Z,1005.72
2019-01-22T05:58:51.280Z,1005.70
2019-01-22T05:59:51.264Z,1005.69
2019-01-22T06:00:51.250Z,1005.67
2019-01-22T06:01:51.259Z,1005.64
2019-01-22T06:02:51.221Z,1005.61
2019-01-22T06:03:51.211Z,1005.61
2019-01-22T06:04:51.202Z,1005.59
2019-01-22T06:05:51.192Z,1005.67
2019-01-22T06:06:51.165Z,1005.58
2019-01-22T06:07:51.155Z,1005.59
2019-01-22T06:08:51.144Z,1005.56
2019-01-22T06:09:51.123Z,1005.51
2019-01-22T06:10:51.113Z,1005.56
2019-01-22T06:11:51.103Z,1005.53
2019-01-22T06:12:51.083Z,1005.49
2019-01-22T06:13:51.067Z,1005.46
2019-01-22T06:14:51.062Z,1005.47
2019-01-22T06:15:51.044Z,1005.44
2019-01-22T06:16:51.035Z,1005.42
2019-01-22T06:17:51.015Z,1005.45
2019-01-22T06:18:50.995Z,1005.38
2019-01-22T06:19:51.976Z,1005.38
2019-01-22T06:20:50.969Z,1005.37
2019-01-22T06:21:50.967Z,1005.31
2019-01-22T06:22:50.951Z,1005.30
2019-01-22T06:23:50.939Z,1005.31
2019-01-22T06:24:50.915Z,1005.26
2019-01-22T06:25:51.476Z,1005.26
2019-01-22T06:26:50.900Z,1005.23
2019-01-22T06:27:53.503Z,1005.25
2019-01-22T06:28:50.862Z,1005.28
2019-01-22T06:29:51.478Z,1005.26
2019-01-22T06:30:50.839Z,1005.27
2019-01-22T06:31:50.810Z,1005.26
2019-01-22T06:32:50.803Z,1005.22
2019-01-22T06:33:50.784Z,1005.18
2019-01-22T06:34:50.775Z,1005.19
2019-01-22T06:35:53.477Z,1005.14
2019-01-22T06:36:50.750Z,1005.13
2019-01-22T06:37:50.732Z,1005.14
2019-01-22T06:38:50.717Z,1005.17
2019-01-22T06:39:50.705Z,1005.14
2019-01-22T06:40:50.693Z,1005.15
2019-01-22T06:41:51.475Z,1005.15
2019-01-22T06:42:50.666Z,1005.10
2019-01-22T06:43:50.652Z,1005.16
2019-01-22T06:44:50.637Z,1005.11
2019-01-22T06:45:50.622Z,1005.13
2019-01-22T06:46:50.606Z,1005.15
2019-01-22T06:47:50.594Z,1005.11
2019-01-22T06:48:50.575Z,1005.11
2019-01-22T06:49:50.565Z,1005.05
2019-01-22T06:50:50.553Z,1005.07
2019-01-22T06:51:50.551Z,1005.02
2019-01-22T06:52:50.524Z,1005.01
2019-01-22T06:53:50.509Z,1005.02
2019-01-22T06:54:50.499Z,1004.99
2019-01-22T06:55:50.498Z,1004.99
2019-01-22T06:56:50.469Z,1004.93
2019-01-22T06:57:50.456Z,1004.93
2019-01-22T06:58:50.450Z,1004.99
2019-01-22T06:59:50.429Z,1004.91
2019-01-22T07:00:50.409Z,1004.89
2019-01-22T07:01:50.400Z,1004.94
2019-01-22T07:02:50.380Z,1004.91
2019-01-22T07:03:50.379Z,1004.87
2019-01-22T07:04:50.370Z,1004.74
2019-01-22T07:05:50.343Z,1004.82
2019-01-22T07:06:50.357Z,1004.75
2019-01-22T07:07:50.340Z,1004.77
2019-01-22T07:08:50.336Z,1004.74
2019-01-22T07:09:50.311Z,1004.77
2019-01-22T07:10:50.271Z,1004.66
2019-01-22T07:11:50.291Z,1004.70
2019-01-22T07:12:50.308Z,1004.74
2019-01-22T07:13:50.262Z,1004.67
2019-01-22T07:14:50.224Z,1004.65
2019-01-22T07:15:50.212Z,1004.69
2019-01-22T07:16:50.201Z,1004.58
2019-01-22T07:17:50.193Z,1004.55
2019-01-22T07:18:50.169Z,1004.62
2019-01-22T07:19:50.157Z,1004.57
2019-01-22T07:20:50.157Z,1004.58
2019-01-22T07:21:50.152Z,1004.60
2019-01-22T07:22:50.163Z,1004.57
2019-01-22T07:23:50.996Z,1004.54
2019-01-22T07:24:50.980Z,1004.50
2019-01-22T07:25:50.061Z,1004.47
2019-01-22T07:26:50.047Z,1004.46
2019-01-22T07:27:50.055Z,1004.42
2019-01-22T07:28:50.023Z,1004.38
2019-01-22T07:29:50.016Z,1004.40
2019-01-22T07:30:49.999Z,1004.37
2019-01-22T07:31:49.981Z,1004.39
2019-01-22T07:32:49.971Z,1004.38
2019-01-22T07:33:49.952Z,1004.35
2019-01-22T07:34:49.934Z,1004.34
2019-01-22T07:35:49.920Z,1004.36
2019-01-22T07:36:49.914Z,1004.34
2019-01-22T07:37:50.695Z,1004.30
2019-01-22T07:38:49.883Z,1004.39
2019-01-22T07:39:49.875Z,1004.31
2019-01-22T07:40:49.860Z,1004.35
2019-01-22T07:41:49.849Z,1004.33
2019-01-22T07:42:49.845Z,1004.37
2019-01-22T07:43:49.819Z,1004.32
2019-01-22T07:44:49.804Z,1004.30
2019-01-22T07:45:49.791Z,1004.28
2019-01-22T07:46:49.795Z,1004.27
2019-01-22T07:47:49.760Z,1004.31
2019-01-22T07:48:49.756Z,1004.24
2019-01-22T07:49:49.749Z,1004.24
2019-01-22T07:50:52.487Z,1004.20
2019-01-22T07:51:49.708Z,1004.17
2019-01-22T07:52:49.706Z,1004.23
2019-01-22T07:53:49.679Z,1004.15
2019-01-22T07:54:53.649Z,1004.11
2019-01-22T07:55:49.654Z,1004.05
2019-01-22T07:56:49.638Z,1004.01
2019-01-22T07:57:49.627Z,1003.98
2019-01-22T07:58:49.611Z,1003.97
2019-01-22T07:59:49.595Z,1003.95
2019-01-22T08:00:49.581Z,1003.92
2019-01-22T08:01:49.577Z,1003.93
2019-01-22T08:02:49.557Z,1003.91
2019-01-22T08:03:49.543Z,1003.86
2019-01-22T08:04:49.541Z,1003.87
2019-01-22T08:05:49.513Z,1003.84
2019-01-22T08:06:49.496Z,1003.85
2019-01-22T08:07:49.496Z,1003.86
2019-01-22T08:08:49.474Z,1003.82
2019-01-22T08:09:49.459Z,1003.83
2019-01-22T08:10:49.992Z,1003.78
2019-01-22T08:11:49.434Z,1003.79
2019-01-22T08:12:49.419Z,1003.82
2019-01-22T08:13:49.403Z,1003.71
2019-01-22T08:14:49.392Z,1003.76
2019-01-22T08:15:49.383Z,1003.71
2019-01-22T08:16:49.369Z,1003.75
2019-01-22T08:17:49.363Z,1003.78
2019-01-22T08:18:49.334Z,1003.75
2019-01-22T08:19:49.321Z,1003.72
2019-01-22T08:20:49.308Z,1003.78
2019-01-22T08:21:52.002Z,1003.82
2019-01-22T08:22:49.285Z,1003.81
2019-01-22T08:23:49.268Z,1003.80
2019-01-22T08:24:49.262Z,1003.75
2019-01-22T08:25:49.241Z,1003.76
2019-01-22T08:26:49.991Z,1003.76
2019-01-22T08:27:49.212Z,1003.71
2019-01-22T08:28:49.201Z,1003.73
2019-01-22T08:29:49.189Z,1003.73
2019-01-22T08:30:49.174Z,1003.70
2019-01-22T08:31:49.163Z,1003.66
2019-01-22T08:32:49.145Z,1003.71
2019-01-22T08:33:49.144Z,1003.69
2019-01-22T08:34:49.119Z,1003.76
2019-01-22T08:35:49.123Z,1003.76
2019-01-22T08:36:49.095Z,1003.74
2019-01-22T08:37:49.076Z,1003.77
2019-01-22T08:38:49.071Z,1003.76
2019-01-22T08:39:49.063Z,1003.76
2019-01-22T08:40:49.042Z,1003.70
2019-01-22T08:41:49.029Z,1003.72
2019-01-22T08:42:49.014Z,1003.77
2019-01-22T08:43:49.000Z,1003.75
2019-01-22T08:44:48.989Z,1003.72
2019-01-22T08:45:48.967Z,1003.70
2019-01-22T08:46:48.959Z,1003.74
2019-01-22T08:47:48.957Z,1003.75
2019-01-22T08:48:48.948Z,1003.78
2019-01-22T08:49:49.505Z,1003.78
2019-01-22T08:50:48.903Z,1003.79
2019-01-22T08:51:48.895Z,1003.78
2019-01-22T08:52:48.881Z,1003.77
2019-01-22T08:53:48.886Z,1003.77
2019-01-22T08:54:49.505Z,1003.75
2019-01-22T08:55:48.847Z,1003.73
2019-01-22T08:56:48.833Z,1003.73
2019-01-22T08:57:48.811Z,1003.76
2019-01-22T08:58:48.807Z,1003.75
2019-01-22T08:59:48.786Z,1003.71
2019-01-22T09:00:48.778Z,1003.71
2019-01-22T09:01:48.765Z,1003.71
2019-01-22T09:02:48.754Z,1003.69
2019-01-22T09:03:48.734Z,1003.67
2019-01-22T09:04:48.723Z,1003.70
2019-01-22T09:05:48.710Z,1003.66
2019-01-22T09:06:48.696Z,1003.62
2019-01-22T09:07:48.694Z,1003.65
2019-01-22T09:08:48.676Z,1003.65
2019-01-22T09:09:48.655Z,1003.65
2019-01-22T09:10:48.641Z,1003.66
2019-01-22T09:11:48.638Z,1003.63
2019-01-22T09:12:48.618Z,1003.61
2019-01-22T09:13:48.633Z,1003.57
2019-01-22T09:14:51.507Z,1003.56
2019-01-22T09:15:48.581Z,1003.58
2019-01-22T09:16:48.571Z,1003.51
2019-01-22T09:17:48.558Z,1003.60
2019-01-22T09:18:49.514Z,1003.57
2019-01-22T09:19:48.537Z,1003.53
2019-01-22T09:20:48.516Z,1003.58
2019-01-22T09:21:48.501Z,1003.57
2019-01-22T09:22:48.492Z,1003.47
2019-01-22T09:23:48.492Z,1003.49
2019-01-22T09:24:48.465Z,1003.53
2019-01-22T09:25:48.457Z,1003.48
2019-01-22T09:26:48.449Z,1003.46
2019-01-22T09:27:48.426Z,1003.57
2019-01-22T09:28:48.421Z,1003.45
2019-01-22T09:29:48.401Z,1003.41
2019-01-22T09:30:48.387Z,1003.43
2019-01-22T09:31:48.373Z,1003.47
2019-01-22T09:32:48.365Z,1003.44
2019-01-22T09:33:49.627Z,1003.37
2019-01-22T09:34:48.343Z,1003.39
2019-01-22T09:35:48.330Z,1003.43
2019-01-22T09:36:48.313Z,1003.39
2019-01-22T09:37:48.298Z,1003.39
2019-01-22T09:38:49.012Z,1003.40
2019-01-22T09:39:49.232Z,1003.36
2019-01-22T09:40:48.263Z,1003.40
2019-01-22T09:41:48.254Z,1003.38
2019-01-22T09:42:48.233Z,1003.38
2019-01-22T09:43:48.222Z,1003.36
2019-01-22T09:44:48.217Z,1003.30
2019-01-22T09:45:48.201Z,1003.27
2019-01-22T09:46:48.194Z,1003.28
2019-01-22T09:47:48.175Z,1003.27
2019-01-22T09:48:48.163Z,1003.19
2019-01-22T09:49:48.164Z,1003.23
2019-01-22T09:50:48.143Z,1003.16
2019-01-22T09:51:48.126Z,1003.15
2019-01-22T09:52:48.114Z,1003.06
2019-01-22T09:53:48.092Z,1003.11
2019-01-22T09:54:48.085Z,1003.05
2019-01-22T09:55:48.083Z,1003.04
2019-01-22T09:56:48.065Z,1003.03
2019-01-22T09:57:48.065Z,1002.96
2019-01-22T09:58:48.044Z,1003.03
2019-01-22T09:59:49.016Z,1003.06
2019-01-22T10:00:48.019Z,1002.99
2019-01-22T10:01:47.995Z,1003.05
2019-01-22T10:02:47.986Z,1003.07
2019-01-22T10:03:47.982Z,1003.03
2019-01-22T10:04:47.962Z,1003.02
2019-01-22T10:05:48.516Z,1003.02
2019-01-22T10:06:47.945Z,1003.05
2019-01-22T10:07:47.924Z,1003.04
2019-01-22T10:08:48.531Z,1003.01
2019-01-22T10:09:47.902Z,1003.01
2019-01-22T10:10:47.895Z,1002.96
2019-01-22T10:11:47.884Z,1002.97
2019-01-22T10:12:47.875Z,1002.99
2019-01-22T10:13:48.544Z,1002.92
2019-01-22T10:14:47.851Z,1002.99
2019-01-22T10:15:47.829Z,1002.98
2019-01-22T10:16:47.822Z,1002.93
2019-01-22T10:17:48.558Z,1002.91
2019-01-22T10:18:47.800Z,1002.92
2019-01-22T10:19:47.794Z,1002.88
2019-01-22T10:20:47.769Z,1002.89
2019-01-22T10:21:47.771Z,1002.85
2019-01-22T10:22:47.747Z,1002.84
2019-01-22T10:23:47.738Z,1002.76
2019-01-22T10:24:47.717Z,1002.72
2019-01-22T10:25:47.703Z,1002.78
2019-01-22T10:26:47.707Z,1002.78
2019-01-22T10:27:47.680Z,1002.61
2019-01-22T10:28:47.670Z,1002.57
2019-01-22T10:29:47.661Z,1002.59
2019-01-22T10:30:47.657Z,1002.54
2019-01-22T10:31:50.438Z,1002.52
2019-01-22T10:32:47.622Z,1002.46
2019-01-22T10:33:47.606Z,1002.49
2019-01-22T10:34:47.600Z,1002.47
2019-01-22T10:35:47.593Z,1002.47
2019-01-22T10:36:47.570Z,1002.41
2019-01-22T10:37:47.561Z,1002.40
2019-01-22T10:38:47.555Z,1002.28
2019-01-22T10:39:47.533Z,1002.29
2019-01-22T10:40:47.566Z,1002.23
2019-01-22T10:41:47.516Z,1002.20
2019-01-22T10:42:47.501Z,1002.23
2019-01-22T10:43:47.487Z,1002.18
2019-01-22T10:44:48.038Z,1002.19
2019-01-22T10:45:47.463Z,1002.18
2019-01-22T10:46:47.451Z,1002.17
2019-01-22T10:47:48.023Z,1002.10
2019-01-22T10:48:47.428Z,1002.16
2019-01-22T10:49:47.420Z,1002.09
2019-01-22T10:50:47.405Z,1002.12
2019-01-22T10:51:47.411Z,1002.09
2019-01-22T10:52:47.382Z,1002.04
2019-01-22T10:53:47.373Z,1002.03
2019-01-22T10:54:47.358Z,1001.99
2019-01-22T10:55:47.365Z,1001.97
2019-01-22T10:56:47.345Z,1002.05
2019-01-22T10:57:47.332Z,1001.99
2019-01-22T10:58:47.322Z,1001.96
2019-01-22T10:59:47.301Z,1001.95
2019-01-22T11:00:47.298Z,1001.87
2019-01-22T11:01:47.275Z,1001.94
2019-01-22T11:02:47.270Z,1001.92
2019-01-22T11:03:48.036Z,1001.97
2019-01-22T11:04:47.250Z,1001.92
2019-01-22T11:05:47.227Z,1001.92
2019-01-22T11:06:47.218Z,1001.92
2019-01-22T11:07:47.216Z,1001.95
2019-01-22T11:08:47.197Z,1001.81
2019-01-22T11:09:47.188Z,1001.83
2019-01-22T11:10:47.167Z,1001.80
2019-01-22T11:11:47.167Z,1001.83
2019-01-22T11:12:47.150Z,1001.82
2019-01-22T11:13:47.147Z,1001.83
2019-01-22T11:14:47.142Z,1001.74
2019-01-22T11:15:47.118Z,1001.77
2019-01-22T11:16:47.120Z,1001.75
2019-01-22T11:17:47.094Z,1001.83
2019-01-22T11:18:48.030Z,1001.72
2019-01-22T11:19:47.073Z,1001.76
2019-01-22T11:20:47.067Z,1001.66
2019-01-22T11:21:47.049Z,1001.72
2019-01-22T11:22:47.036Z,1001.66
2019-01-22T11:23:47.041Z,1001.72
2019-01-22T11:24:47.031Z,1001.65
2019-01-22T11:25:47.012Z,1001.68
2019-01-22T11:26:46.993Z,1001.63
2019-01-22T11:27:49.530Z,1001.63
2019-01-22T11:28:46.977Z,1001.57
2019-01-22T11:29:46.970Z,1001.58
2019-01-22T11:30:49.534Z,1001.59
2019-01-22T11:31:46.934Z,1001.56
2019-01-22T11:32:46.931Z,1001.57
2019-01-22T11:33:46.922Z,1001.57
2019-01-22T11:34:46.908Z,1001.54
2019-01-22T11:35:46.893Z,1001.55
2019-01-22T11:36:46.879Z,1001.48
2019-01-22T11:37:46.865Z,1001.44
2019-01-22T11:38:46.853Z,1001.40
2019-01-22T11:39:46.843Z,1001.45
2019-01-22T11:40:46.831Z,1001.45
2019-01-22T11:41:46.830Z,1001.38
2019-01-22T11:42:46.810Z,1001.40
2019-01-22T11:43:46.798Z,1001.40
2019-01-22T11:44:46.786Z,1001.31
2019-01-22T11:45:46.779Z,1001.34
2019-01-22T11:46:47.603Z,1001.32
2019-01-22T11:47:46.767Z,1001.30
2019-01-22T11:48:46.746Z,1001.29
2019-01-22T11:49:46.728Z,1001.40
2019-01-22T11:50:46.726Z,1001.33
2019-01-22T11:51:46.715Z,1001.29
2019-01-22T11:52:46.696Z,1001.32
2019-01-22T11:53:46.685Z,1001.36
2019-01-22T11:54:46.670Z,1001.29
2019-01-22T11:55:50.495Z,1001.35
2019-01-22T11:56:46.660Z,1001.32
2019-01-22T11:57:46.639Z,1001.24
2019-01-22T11:58:46.631Z,1001.20
2019-01-22T11:59:46.624Z,1001.14
2019-01-22T12:00:46.609Z,1001.25
2019-01-22T12:01:46.599Z,1001.18
2019-01-22T12:02:46.588Z,1001.21
2019-01-22T12:03:46.577Z,1001.27
2019-01-22T12:04:46.585Z,1001.19
2019-01-22T12:05:46.549Z,1001.24